createdAt,value
2018-09-30T00:02:32.900Z,8.31
2018-09-30T00:05:09.840Z,8.28
2018-09-30T00:07:47.491Z,8.27
2018-09-30T00:10:25.033Z,8.26
2018-09-30T00:13:08.320Z,8.25
2018-09-30T00:15:45.517Z,8.23
2018-09-30T00:18:23.433Z,8.22
2018-09-30T00:20:57.982Z,8.23
2018-09-30T00:23:41.130Z,8.20
2018-09-30T00:27:23.535Z,8.14
2018-09-30T00:29:55.917Z,8.06
2018-09-30T00:32:25.448Z,8.03
2018-09-30T00:34:55.013Z,8.02
2018-09-30T00:37:24.541Z,7.99
2018-09-30T00:39:54.074Z,7.95
2018-09-30T00:42:23.589Z,7.93
2018-09-30T00:44:53.138Z,7.90
2018-09-30T00:47:22.669Z,7.89
2018-09-30T00:49:52.205Z,7.87
2018-09-30T00:52:21.717Z,7.84
2018-09-30T00:54:51.231Z,7.82
2018-09-30T00:57:20.722Z,7.81
2018-09-30T00:59:50.264Z,7.81
2018-09-30T01:02:28.667Z,7.78
2018-09-30T01:04:58.182Z,7.75
2018-09-30T01:07:27.693Z,7.75
2018-09-30T01:09:57.202Z,7.73
2018-09-30T01:12:26.753Z,7.75
2018-09-30T01:14:56.280Z,7.75
2018-09-30T01:17:25.868Z,7.77
2018-09-30T01:19:55.373Z,7.79
2018-09-30T01:22:24.877Z,7.82
2018-09-30T01:24:54.405Z,7.82
2018-09-30T01:27:23.965Z,7.84
2018-09-30T01:29:53.468Z,7.86
2018-09-30T01:32:22.942Z,7.88
2018-09-30T01:34:52.459Z,7.89
2018-09-30T01:37:21.994Z,7.90
2018-09-30T01:39:51.561Z,7.91
2018-09-30T01:42:21.093Z,7.91
2018-09-30T01:44:50.568Z,7.93
2018-09-30T01:47:20.172Z,7.94
2018-09-30T01:49:49.704Z,7.93
2018-09-30T01:52:36.020Z,7.94
2018-09-30T01:55:06.565Z,7.93
2018-09-30T01:57:36.096Z,7.92
2018-09-30T02:00:06.246Z,7.90
2018-09-30T02:02:35.748Z,7.87
2018-09-30T02:05:05.372Z,7.84
2018-09-30T02:07:34.906Z,7.81
2018-09-30T02:10:04.640Z,7.79
2018-09-30T02:12:34.200Z,7.76
2018-09-30T02:15:03.787Z,7.74
2018-09-30T02:17:33.730Z,7.69
2018-09-30T02:20:03.322Z,7.65
2018-09-30T02:22:32.863Z,7.63
2018-09-30T02:25:02.402Z,7.59
2018-09-30T02:27:31.941Z,7.59
2018-09-30T02:30:01.473Z,7.59
2018-09-30T02:32:31.004Z,7.61
2018-09-30T02:35:00.509Z,7.64
2018-09-30T02:37:30.014Z,7.65
2018-09-30T02:39:59.592Z,7.67
2018-09-30T02:42:29.104Z,7.69
2018-09-30T02:44:58.614Z,7.71
2018-09-30T02:47:28.162Z,7.73
2018-09-30T02:49:57.665Z,7.75
2018-09-30T02:52:27.287Z,7.75
2018-09-30T02:54:56.808Z,7.76
2018-09-30T02:57:26.305Z,7.77
2018-09-30T02:59:55.802Z,7.78
2018-09-30T03:02:25.297Z,7.82
2018-09-30T03:04:54.768Z,7.88
2018-09-30T03:07:29.557Z,7.93
2018-09-30T03:09:59.105Z,7.99
2018-09-30T03:12:28.661Z,8.02
2018-09-30T03:14:58.292Z,8.06
2018-09-30T03:17:27.866Z,8.09
2018-09-30T03:19:57.421Z,8.12
2018-09-30T03:22:26.924Z,8.15
2018-09-30T03:27:25.316Z,8.21
2018-09-30T03:29:54.910Z,8.22
2018-09-30T03:32:24.537Z,8.25
2018-09-30T03:34:54.176Z,8.29
2018-09-30T03:37:23.827Z,8.31
2018-09-30T03:39:53.385Z,8.34
2018-09-30T03:42:22.943Z,8.40
2018-09-30T03:44:52.534Z,8.43
2018-09-30T03:47:24.531Z,8.47
2018-09-30T03:49:54.172Z,8.49
2018-09-30T03:52:23.796Z,8.52
2018-09-30T03:54:53.401Z,8.50
2018-09-30T03:57:23.064Z,8.58
2018-09-30T03:59:52.677Z,8.59
2018-09-30T04:02:22.285Z,8.62
2018-09-30T04:04:51.857Z,8.63
2018-09-30T04:07:21.486Z,8.65
2018-09-30T04:09:51.091Z,8.65
2018-09-30T04:12:20.704Z,8.89
2018-09-30T04:14:50.270Z,8.82
2018-09-30T04:17:19.839Z,8.79
2018-09-30T04:19:49.407Z,8.76
2018-09-30T04:22:19.009Z,8.73
2018-09-30T04:24:48.669Z,8.70
2018-09-30T04:27:18.263Z,8.69
2018-09-30T04:29:47.865Z,8.66
2018-09-30T04:32:17.432Z,8.62
2018-09-30T04:34:46.996Z,8.68
2018-09-30T04:37:16.595Z,8.59
2018-09-30T04:39:46.175Z,8.50
2018-09-30T04:42:16.843Z,8.44
2018-09-30T04:44:46.403Z,8.38
2018-09-30T04:47:16.038Z,8.31
2018-09-30T04:49:45.587Z,8.24
2018-09-30T04:52:15.172Z,8.19
2018-09-30T04:54:44.741Z,8.14
2018-09-30T04:57:14.289Z,8.10
2018-09-30T04:59:43.848Z,8.03
2018-09-30T05:02:13.453Z,7.99
2018-09-30T05:04:43.125Z,7.95
2018-09-30T05:07:12.694Z,7.93
2018-09-30T05:09:42.481Z,7.91
2018-09-30T05:12:12.346Z,7.87
2018-09-30T05:14:48.724Z,7.83
2018-09-30T05:17:18.409Z,7.79
2018-09-30T05:19:50.048Z,7.74
2018-09-30T05:22:19.716Z,7.71
2018-09-30T05:24:49.326Z,7.67
2018-09-30T05:27:18.965Z,7.63
2018-09-30T05:29:48.542Z,7.59
2018-09-30T05:32:18.206Z,7.59
2018-09-30T05:34:47.885Z,7.57
2018-09-30T05:37:17.618Z,7.57
2018-09-30T05:39:47.145Z,7.57
2018-09-30T05:42:16.817Z,7.56
2018-09-30T05:44:46.554Z,7.57
2018-09-30T05:47:16.215Z,7.56
2018-09-30T05:49:45.792Z,7.55
2018-09-30T05:52:15.692Z,7.53
2018-09-30T05:54:45.426Z,7.53
2018-09-30T05:57:15.068Z,7.54
2018-09-30T05:59:44.750Z,7.55
2018-09-30T06:02:14.542Z,7.60
2018-09-30T06:04:44.165Z,7.65
2018-09-30T06:07:13.856Z,7.70
2018-09-30T06:09:43.480Z,7.75
2018-09-30T06:12:13.187Z,7.79
2018-09-30T06:14:42.868Z,7.81
2018-09-30T06:17:12.590Z,7.84
2018-09-30T06:19:42.252Z,7.88
2018-09-30T06:22:11.864Z,7.91
2018-09-30T06:24:41.630Z,7.94
2018-09-30T06:27:11.422Z,8.00
2018-09-30T06:29:41.091Z,8.08
2018-09-30T06:32:10.850Z,8.14
2018-09-30T06:34:40.452Z,8.23
2018-09-30T06:37:10.885Z,8.31
2018-09-30T06:39:40.459Z,8.38
2018-09-30T06:42:10.033Z,8.47
2018-09-30T06:44:40.566Z,8.53
2018-09-30T06:47:10.222Z,8.63
2018-09-30T06:49:39.894Z,8.72
2018-09-30T06:52:10.296Z,8.81
2018-09-30T06:54:39.937Z,8.92
2018-09-30T06:57:09.534Z,9.04
2018-09-30T06:59:39.336Z,9.17
2018-09-30T07:02:08.993Z,9.32
2018-09-30T07:04:38.672Z,9.47
2018-09-30T07:07:08.213Z,9.63
2018-09-30T07:09:37.805Z,9.79
2018-09-30T07:12:07.418Z,9.95
2018-09-30T07:14:37.044Z,10.12
2018-09-30T07:17:06.688Z,10.29
2018-09-30T07:19:36.354Z,10.46
2018-09-30T07:22:06.236Z,10.62
2018-09-30T07:24:35.871Z,10.80
2018-09-30T07:27:06.393Z,10.99
2018-09-30T07:29:35.935Z,11.15
2018-09-30T07:32:06.779Z,11.31
2018-09-30T07:34:36.458Z,11.45
2018-09-30T07:37:06.714Z,11.59
2018-09-30T07:39:36.429Z,11.77
2018-09-30T07:42:06.653Z,11.93
2018-09-30T07:44:36.334Z,12.08
2018-09-30T07:47:06.309Z,12.24
2018-09-30T07:49:35.914Z,12.41
2018-09-30T07:52:06.431Z,12.56
2018-09-30T07:54:36.073Z,12.67
2018-09-30T07:57:06.724Z,12.85
2018-09-30T07:59:36.309Z,13.06
2018-09-30T08:02:06.807Z,13.24
2018-09-30T08:04:36.468Z,13.33
2018-09-30T08:07:06.497Z,13.39
2018-09-30T08:09:36.062Z,13.37
2018-09-30T08:12:06.379Z,13.45
2018-09-30T08:14:35.970Z,13.63
2018-09-30T08:17:06.466Z,13.73
2018-09-30T08:19:36.072Z,13.68
2018-09-30T08:22:06.581Z,13.61
2018-09-30T08:24:36.264Z,13.62
2018-09-30T08:27:06.844Z,13.68
2018-09-30T08:29:36.457Z,13.77
2018-09-30T08:32:06.942Z,13.87
2018-09-30T08:34:36.486Z,13.98
2018-09-30T08:37:06.611Z,14.10
2018-09-30T08:39:36.330Z,14.18
2018-09-30T08:42:06.606Z,14.27
2018-09-30T08:44:36.162Z,14.39
2018-09-30T08:47:06.609Z,14.49
2018-09-30T08:49:36.191Z,14.59
2018-09-30T08:52:06.698Z,14.71
2018-09-30T08:54:36.361Z,14.83
2018-09-30T08:57:06.258Z,14.95
2018-09-30T08:59:35.898Z,15.02
2018-09-30T09:02:06.455Z,15.05
2018-09-30T09:04:36.229Z,15.19
2018-09-30T09:07:06.496Z,15.37
2018-09-30T09:09:36.097Z,15.59
2018-09-30T09:12:06.747Z,15.77
2018-09-30T09:14:38.280Z,15.82
2018-09-30T09:17:07.968Z,15.80
2018-09-30T09:19:37.638Z,15.95
2018-09-30T09:22:10.836Z,16.11
2018-09-30T09:24:40.424Z,16.20
2018-09-30T09:27:10.106Z,16.22
2018-09-30T09:29:39.722Z,16.32
2018-09-30T09:32:09.290Z,16.36
2018-09-30T09:34:38.842Z,16.49
2018-09-30T09:37:08.749Z,16.63
2018-09-30T09:39:38.331Z,16.77
2018-09-30T09:42:08.033Z,16.83
2018-09-30T09:44:37.670Z,16.78
2018-09-30T09:47:07.816Z,16.79
2018-09-30T09:49:37.384Z,16.77
2018-09-30T09:52:07.124Z,16.81
2018-09-30T09:54:36.686Z,16.84
2018-09-30T09:57:06.554Z,16.87
2018-09-30T09:59:36.112Z,16.96
2018-09-30T10:02:06.587Z,17.07
2018-09-30T10:04:36.149Z,17.15
2018-09-30T10:07:06.170Z,17.21
2018-09-30T10:09:35.774Z,17.24
2018-09-30T10:12:06.319Z,17.35
2018-09-30T10:14:36.557Z,17.45
2018-09-30T10:17:06.402Z,17.52
2018-09-30T10:19:36.125Z,17.56
2018-09-30T10:22:06.629Z,17.62
2018-09-30T10:24:36.236Z,17.60
2018-09-30T10:27:06.546Z,17.69
2018-09-30T10:29:36.146Z,17.73
2018-09-30T10:32:06.359Z,17.74
2018-09-30T10:34:35.942Z,17.77
2018-09-30T10:37:06.437Z,17.88
2018-09-30T10:39:36.060Z,18.09
2018-09-30T10:42:06.550Z,18.30
2018-09-30T10:44:36.380Z,18.52
2018-09-30T10:47:09.828Z,18.70
2018-09-30T10:49:39.507Z,18.89
2018-09-30T10:52:09.184Z,18.96
2018-09-30T10:54:38.766Z,18.92
2018-09-30T10:57:08.452Z,18.86
2018-09-30T10:59:38.132Z,18.82
2018-09-30T11:02:07.810Z,18.78
2018-09-30T11:04:37.394Z,18.71
2018-09-30T11:07:07.201Z,18.69
2018-09-30T11:09:36.873Z,18.68
2018-09-30T11:12:06.741Z,18.61
2018-09-30T11:14:36.409Z,18.55
2018-09-30T11:17:06.950Z,18.55
2018-09-30T11:19:36.792Z,18.62
2018-09-30T11:22:06.625Z,18.68
2018-09-30T11:24:36.263Z,18.90
2018-09-30T11:27:06.637Z,19.12
2018-09-30T11:29:36.207Z,19.34
2018-09-30T11:32:06.457Z,19.64
2018-09-30T11:34:36.077Z,20.06
2018-09-30T11:37:06.647Z,20.52
2018-09-30T11:39:36.811Z,20.96
2018-09-30T11:42:06.807Z,21.71
2018-09-30T11:44:36.425Z,21.97
2018-09-30T11:47:06.328Z,22.17
2018-09-30T11:49:35.919Z,22.42
2018-09-30T11:52:06.381Z,22.56
2018-09-30T11:54:36.075Z,22.63
2018-09-30T11:57:05.823Z,22.19
2018-09-30T11:59:35.475Z,22.02
2018-09-30T12:02:05.186Z,22.13
2018-09-30T12:04:34.998Z,21.90
2018-09-30T12:07:04.785Z,21.57
2018-09-30T12:09:35.435Z,21.56
2018-09-30T12:12:06.287Z,21.34
2018-09-30T12:14:35.911Z,21.22
2018-09-30T12:17:06.406Z,21.21
2018-09-30T12:19:36.338Z,20.97
2018-09-30T12:22:06.597Z,20.80
2018-09-30T12:24:36.144Z,20.67
2018-09-30T12:27:06.744Z,20.61
2018-09-30T12:29:38.840Z,20.41
2018-09-30T12:32:08.829Z,20.15
2018-09-30T12:34:38.444Z,19.99
2018-09-30T12:37:08.092Z,19.88
2018-09-30T12:39:37.695Z,19.76
2018-09-30T12:42:07.321Z,19.59
2018-09-30T12:44:36.873Z,19.48
2018-09-30T12:47:06.486Z,19.34
2018-09-30T12:49:36.059Z,19.29
2018-09-30T12:52:08.228Z,19.31
2018-09-30T12:54:38.164Z,19.31
2018-09-30T12:57:07.782Z,19.26
2018-09-30T12:59:37.539Z,19.23
2018-09-30T13:02:07.163Z,19.23
2018-09-30T13:04:36.787Z,19.17
2018-09-30T13:07:06.474Z,19.11
2018-09-30T13:09:36.206Z,19.09
2018-09-30T13:12:06.555Z,19.03
2018-09-30T13:14:36.287Z,19.00
2018-09-30T13:17:09.341Z,19.00
2018-09-30T13:19:40.175Z,19.05
2018-09-30T13:22:10.040Z,19.13
2018-09-30T13:24:39.708Z,19.17
2018-09-30T13:27:09.407Z,19.20
2018-09-30T13:29:39.020Z,19.22
2018-09-30T13:32:08.665Z,19.67
2018-09-30T13:34:38.342Z,20.09
2018-09-30T13:37:07.978Z,19.97
2018-09-30T13:39:37.570Z,19.75
2018-09-30T13:42:07.366Z,19.55
2018-09-30T13:44:37.021Z,19.45
2018-09-30T13:47:06.981Z,19.57
2018-09-30T13:49:36.782Z,19.70
2018-09-30T13:52:06.419Z,19.83
2018-09-30T13:54:36.175Z,19.85
2018-09-30T13:57:08.065Z,19.87
2018-09-30T13:59:37.842Z,20.22
2018-09-30T14:02:07.529Z,21.37
2018-09-30T14:04:37.930Z,22.54
2018-09-30T14:07:07.700Z,23.08
2018-09-30T14:09:37.285Z,22.60
2018-09-30T14:12:07.015Z,21.86
2018-09-30T14:14:36.719Z,21.13
2018-09-30T14:17:06.470Z,20.58
2018-09-30T14:19:36.129Z,20.24
2018-09-30T14:22:06.736Z,20.06
2018-09-30T14:24:36.438Z,19.92
2018-09-30T14:27:06.898Z,19.78
2018-09-30T14:29:36.458Z,19.60
2018-09-30T14:32:07.541Z,19.46
2018-09-30T14:34:37.171Z,19.47
2018-09-30T14:37:06.895Z,19.49
2018-09-30T14:39:36.605Z,19.44
2018-09-30T14:42:06.758Z,19.44
2018-09-30T14:44:36.420Z,19.30
2018-09-30T14:47:06.676Z,19.19
2018-09-30T14:49:36.284Z,19.19
2018-09-30T14:52:06.815Z,19.25
2018-09-30T14:54:37.669Z,19.46
2018-09-30T14:57:07.397Z,19.51
2018-09-30T14:59:36.992Z,19.56
2018-09-30T15:02:06.613Z,19.52
2018-09-30T15:04:38.630Z,19.49
2018-09-30T15:07:08.504Z,19.46
2018-09-30T15:09:38.034Z,19.49
2018-09-30T15:12:07.723Z,19.50
2018-09-30T15:14:37.306Z,19.54
2018-09-30T15:17:06.992Z,19.52
2018-09-30T15:19:37.030Z,19.51
2018-09-30T15:22:09.988Z,19.40
2018-09-30T15:24:39.739Z,19.27
2018-09-30T15:27:09.638Z,19.16
2018-09-30T15:29:39.244Z,19.18
2018-09-30T15:32:08.949Z,19.94
2018-09-30T15:34:38.570Z,21.32
2018-09-30T15:37:08.510Z,22.59
2018-09-30T15:39:38.161Z,23.42
2018-09-30T15:42:08.302Z,24.09
2018-09-30T15:44:38.972Z,24.51
2018-09-30T15:47:08.669Z,24.86
2018-09-30T15:49:38.421Z,25.17
2018-09-30T15:52:08.288Z,25.20
2018-09-30T15:54:38.014Z,24.13
2018-09-30T15:57:07.722Z,22.69
2018-09-30T15:59:39.076Z,21.43
2018-09-30T16:02:08.766Z,20.56
2018-09-30T16:04:38.494Z,20.87
2018-09-30T16:07:08.402Z,21.73
2018-09-30T16:09:38.267Z,21.80
2018-09-30T16:12:08.013Z,21.06
2018-09-30T16:14:37.677Z,20.36
2018-09-30T16:17:07.588Z,19.79
2018-09-30T16:19:37.257Z,19.29
2018-09-30T16:22:06.889Z,18.89
2018-09-30T16:24:36.777Z,18.57
2018-09-30T16:27:06.814Z,18.24
2018-09-30T16:29:36.438Z,17.96
2018-09-30T16:32:06.236Z,17.72
2018-09-30T16:34:36.007Z,17.54
2018-09-30T16:37:07.427Z,17.36
2018-09-30T16:39:37.047Z,17.20
2018-09-30T16:42:06.778Z,17.11
2018-09-30T16:44:36.478Z,17.03
2018-09-30T16:47:06.837Z,16.93
2018-09-30T16:49:36.514Z,16.83
2018-09-30T16:52:06.725Z,16.72
2018-09-30T16:54:36.359Z,16.58
2018-09-30T16:57:06.388Z,16.44
2018-09-30T16:59:37.005Z,16.30
2018-09-30T17:02:06.902Z,16.15
2018-09-30T17:04:36.578Z,16.01
2018-09-30T17:07:06.673Z,15.91
2018-09-30T17:09:36.543Z,15.81
2018-09-30T17:12:06.614Z,15.74
2018-09-30T17:14:36.459Z,15.67
2018-09-30T17:17:06.720Z,15.60
2018-09-30T17:19:36.624Z,15.54
2018-09-30T17:22:06.376Z,15.48
2018-09-30T17:24:35.977Z,15.42
2018-09-30T17:27:06.510Z,15.42
2018-09-30T17:29:36.232Z,15.38
2018-09-30T17:32:06.662Z,15.35
2018-09-30T17:34:36.338Z,15.33
2018-09-30T17:37:06.769Z,15.32
2018-09-30T17:39:36.583Z,15.32
2018-09-30T17:42:06.350Z,15.33
2018-09-30T17:44:36.371Z,15.34
2018-09-30T17:47:08.761Z,15.37
2018-09-30T17:49:41.663Z,15.39
2018-09-30T17:52:11.467Z,15.39
2018-09-30T17:54:41.270Z,15.40
2018-09-30T17:57:10.926Z,15.38
2018-09-30T17:59:40.654Z,15.38
2018-09-30T18:02:10.276Z,15.37
2018-09-30T18:04:39.935Z,15.35
2018-09-30T18:07:09.626Z,15.34
2018-09-30T18:09:39.271Z,15.31
2018-09-30T18:12:08.933Z,15.29
2018-09-30T18:14:40.021Z,15.26
2018-09-30T18:17:09.833Z,15.23
2018-09-30T18:19:39.487Z,15.22
2018-09-30T18:22:09.865Z,15.21
2018-09-30T18:24:39.503Z,15.19
2018-09-30T18:27:09.163Z,15.18
2018-09-30T18:29:38.933Z,15.17
2018-09-30T18:32:08.600Z,15.14
2018-09-30T18:34:38.317Z,15.13
2018-09-30T18:37:08.010Z,15.13
2018-09-30T18:39:37.881Z,15.10
2018-09-30T18:42:08.141Z,15.08
2018-09-30T18:44:37.787Z,15.04
2018-09-30T18:47:07.590Z,15.01
2018-09-30T18:49:37.193Z,14.95
2018-09-30T18:52:07.806Z,14.90
2018-09-30T18:54:37.530Z,14.87
2018-09-30T18:57:07.326Z,14.84
2018-09-30T18:59:36.932Z,14.77
2018-09-30T19:02:06.494Z,14.73
2018-09-30T19:04:36.126Z,14.70
2018-09-30T19:07:06.707Z,14.68
2018-09-30T19:09:36.374Z,14.67
2018-09-30T19:12:06.810Z,14.66
2018-09-30T19:14:36.505Z,14.65
2018-09-30T19:17:07.134Z,14.64
2018-09-30T19:19:36.794Z,14.61
2018-09-30T19:22:06.835Z,14.59
2018-09-30T19:24:36.507Z,14.55
2018-09-30T19:27:08.435Z,14.51
2018-09-30T19:29:38.156Z,14.47
2018-09-30T19:32:08.022Z,14.46
2018-09-30T19:34:37.701Z,14.39
2018-09-30T19:37:08.949Z,14.23
2018-09-30T19:39:38.593Z,14.01
2018-09-30T19:42:08.303Z,13.86
2018-09-30T19:44:37.889Z,13.75
2018-09-30T19:47:07.684Z,13.71
2018-09-30T19:49:37.376Z,13.71
2018-09-30T19:52:06.986Z,13.71
2018-09-30T19:54:36.731Z,13.70
2018-09-30T19:57:08.773Z,13.72
2018-09-30T19:59:38.482Z,13.75
2018-09-30T20:02:08.615Z,13.76
2018-09-30T20:04:38.308Z,13.77
2018-09-30T20:07:07.968Z,13.80
2018-09-30T20:09:37.639Z,13.81
2018-09-30T20:12:09.831Z,13.81
2018-09-30T20:14:39.758Z,13.82
2018-09-30T20:17:09.501Z,13.81
2018-09-30T20:19:40.104Z,13.82
2018-09-30T20:22:11.663Z,13.84
2018-09-30T20:24:41.708Z,13.85
2018-09-30T20:27:11.399Z,13.86
2018-09-30T20:29:41.307Z,13.90
2018-09-30T20:32:11.006Z,13.92
2018-09-30T20:34:40.819Z,13.91
2018-09-30T20:37:10.600Z,13.90
2018-09-30T20:39:40.358Z,13.88
2018-09-30T20:42:10.179Z,13.86
2018-09-30T20:44:40.398Z,13.84
2018-09-30T20:47:10.113Z,13.83
2018-09-30T20:49:39.887Z,13.81
2018-09-30T20:52:09.654Z,13.80
2018-09-30T20:54:39.447Z,13.80
2018-09-30T20:57:09.128Z,13.78
2018-09-30T20:59:38.762Z,13.75
2018-09-30T21:02:08.477Z,13.72
2018-09-30T21:04:38.123Z,13.69
2018-09-30T21:07:07.815Z,13.65
2018-09-30T21:09:37.495Z,13.63
2018-09-30T21:12:06.871Z,13.59
2018-09-30T21:14:36.624Z,13.56
2018-09-30T21:17:06.930Z,13.55
2018-09-30T21:19:36.637Z,13.47
2018-09-30T21:22:06.760Z,13.55
2018-09-30T21:24:37.012Z,13.52
2018-09-30T21:27:08.976Z,13.51
2018-09-30T21:29:38.592Z,13.52
2018-09-30T21:32:08.380Z,13.51
2018-09-30T21:34:38.123Z,13.52
2018-09-30T21:37:07.848Z,13.51
2018-09-30T21:39:37.643Z,13.51
2018-09-30T21:42:09.915Z,13.50
2018-09-30T21:44:39.649Z,13.49
2018-09-30T21:47:09.430Z,13.46
2018-09-30T21:49:38.994Z,13.44
2018-09-30T21:52:09.057Z,13.42
2018-09-30T21:54:38.729Z,13.41
2018-09-30T21:57:08.459Z,13.41
2018-09-30T21:59:38.068Z,13.40
2018-09-30T22:02:07.760Z,13.34
2018-09-30T22:04:37.371Z,13.39
2018-09-30T22:07:07.177Z,13.32
2018-09-30T22:09:36.897Z,13.25
2018-09-30T22:12:06.440Z,13.17
2018-09-30T22:14:36.076Z,13.11
2018-09-30T22:17:06.409Z,13.08
2018-09-30T22:19:36.118Z,13.05
2018-09-30T22:22:07.058Z,13.01
2018-09-30T22:24:36.650Z,12.97
2018-09-30T22:27:06.694Z,12.95
2018-09-30T22:29:36.261Z,12.97
2018-09-30T22:32:06.693Z,12.96
2018-09-30T22:34:36.497Z,12.95
2018-09-30T22:37:06.819Z,12.93
2018-09-30T22:39:36.397Z,12.90
2018-09-30T22:42:06.326Z,12.83
2018-09-30T22:44:35.902Z,12.77
2018-09-30T22:47:06.615Z,12.73
2018-09-30T22:49:36.252Z,12.68
2018-09-30T22:52:06.704Z,12.65
2018-09-30T22:54:36.325Z,12.62
2018-09-30T22:57:06.953Z,12.55
2018-09-30T22:59:36.554Z,12.49
2018-09-30T23:02:08.734Z,12.46
2018-09-30T23:04:38.355Z,12.42
2018-09-30T23:07:08.109Z,12.43
2018-09-30T23:09:46.023Z,12.44
2018-09-30T23:12:25.347Z,12.43
2018-09-30T23:15:03.113Z,12.41
2018-09-30T23:17:40.798Z,12.42
2018-09-30T23:20:20.155Z,12.37
2018-09-30T23:22:57.562Z,12.43
2018-09-30T23:25:35.997Z,12.41
2018-09-30T23:28:14.869Z,12.39
2018-09-30T23:30:53.278Z,12.34
2018-09-30T23:33:30.125Z,12.29
2018-09-30T23:36:07.586Z,12.25
2018-09-30T23:38:46.587Z,12.20
2018-09-30T23:41:25.777Z,12.15
2018-09-30T23:44:03.789Z,12.10
2018-09-30T23:46:42.030Z,12.03
2018-09-30T23:49:19.495Z,11.95
2018-09-30T23:51:55.753Z,11.86
2018-09-30T23:54:33.850Z,11.79
2018-09-30T23:57:12.345Z,11.72
2018-09-30T23:59:50.608Z,11.66
